sensor_id;sensor_type;location;lat;lon;timestamp;pressure;altitude;pressure_sealevel;temperature;humidity
47716;BME280;33476;50.984;3.538;2023-02-19T00:01:13;102129.84;;;13.04;71.91
47716;BME280;33476;50.984;3.538;2023-02-19T00:03:39;102134.22;;;13.03;71.92
47716;BME280;33476;50.984;3.538;2023-02-19T00:06:06;102132.31;;;13.08;71.83
47716;BME280;33476;50.984;3.538;2023-02-19T00:08:33;102128.06;;;13.04;71.62
47716;BME280;33476;50.984;3.538;2023-02-19T00:11:20;102128.34;;;12.97;72.15
47716;BME280;33476;50.984;3.538;2023-02-19T00:13:48;102129.78;;;13.05;71.54
47716;BME280;33476;50.984;3.538;2023-02-19T00:16:19;102123.88;;;13.00;71.59
47716;BME280;33476;50.984;3.538;2023-02-19T00:18:45;102133.38;;;13.03;71.74
47716;BME280;33476;50.984;3.538;2023-02-19T00:21:11;102133.44;;;13.01;71.65
47716;BME280;33476;50.984;3.538;2023-02-19T00:23:37;102128.19;;;13.01;71.55
47716;BME280;33476;50.984;3.538;2023-02-19T00:26:07;102131.66;;;13.02;71.61
47716;BME280;33476;50.984;3.538;2023-02-19T00:28:33;102136.00;;;13.03;71.11
47716;BME280;33476;50.984;3.538;2023-02-19T00:31:06;102140.53;;;12.98;71.01
47716;BME280;33476;50.984;3.538;2023-02-19T00:33:32;102144.88;;;12.99;71.22
47716;BME280;33476;50.984;3.538;2023-02-19T00:36:01;102135.38;;;12.96;71.30
47716;BME280;33476;50.984;3.538;2023-02-19T00:38:26;102134.28;;;13.02;70.76
47716;BME280;33476;50.984;3.538;2023-02-19T00:40:52;102136.00;;;13.03;70.89
47716;BME280;33476;50.984;3.538;2023-02-19T00:43:17;102134.34;;;13.00;70.82
47716;BME280;33476;50.984;3.538;2023-02-19T00:45:42;102128.19;;;13.01;70.59
47716;BME280;33476;50.984;3.538;2023-02-19T00:48:08;102140.53;;;12.99;70.82
47716;BME280;33476;50.984;3.538;2023-02-19T00:50:33;102144.84;;;13.00;70.32
47716;BME280;33476;50.984;3.538;2023-02-19T00:52:58;102149.19;;;13.01;70.65
47716;BME280;33476;50.984;3.538;2023-02-19T00:55:24;102141.41;;;12.98;70.34
47716;BME280;33476;50.984;3.538;2023-02-19T00:57:49;102152.72;;;13.00;70.39
47716;BME280;33476;50.984;3.538;2023-02-19T01:00:14;102152.72;;;13.00;69.91
47716;BME280;33476;50.984;3.538;2023-02-19T01:02:40;102155.38;;;12.99;69.84
47716;BME280;33476;50.984;3.538;2023-02-19T01:05:05;102149.25;;;12.98;69.89
47716;BME280;33476;50.984;3.538;2023-02-19T01:07:30;102150.13;;;12.99;70.00
47716;BME280;33476;50.984;3.538;2023-02-19T01:09:56;102150.19;;;12.97;69.93
47716;BME280;33476;50.984;3.538;2023-02-19T01:12:21;102153.72;;;12.96;69.39
47716;BME280;33476;50.984;3.538;2023-02-19T01:14:48;102151.09;;;12.96;69.61
47716;BME280;33476;50.984;3.538;2023-02-19T01:17:13;102156.34;;;12.96;69.68
47716;BME280;33476;50.984;3.538;2023-02-19T01:19:39;102154.63;;;12.95;69.08
47716;BME280;33476;50.984;3.538;2023-02-19T01:22:04;102159.94;;;12.93;68.90
47716;BME280;33476;50.984;3.538;2023-02-19T01:24:29;102156.56;;;12.90;68.90
47716;BME280;33476;50.984;3.538;2023-02-19T01:26:55;102156.63;;;12.88;69.00
47716;BME280;33476;50.984;3.538;2023-02-19T01:29:20;102167.09;;;12.88;68.67
47716;BME280;33476;50.984;3.538;2023-02-19T01:31:45;102165.25;;;12.92;68.57
47716;BME280;33476;50.984;3.538;2023-02-19T01:34:11;102159.94;;;12.93;68.36
47716;BME280;33476;50.984;3.538;2023-02-19T01:36:37;102167.03;;;12.91;68.40
47716;BME280;33476;50.984;3.538;2023-02-19T01:39:04;102154.97;;;12.86;68.22
47716;BME280;33476;50.984;3.538;2023-02-19T01:41:31;102164.47;;;12.88;68.04
47716;BME280;33476;50.984;3.538;2023-02-19T01:46:43;102174.88;;;12.91;67.73
47716;BME280;33476;50.984;3.538;2023-02-19T01:49:16;102175.75;;;12.92;67.62
47716;BME280;33476;50.984;3.538;2023-02-19T01:52:05;102174.88;;;12.91;67.51
47716;BME280;33476;50.984;3.538;2023-02-19T01:54:36;102174.75;;;12.94;67.49
47716;BME280;33476;50.984;3.538;2023-02-19T01:57:07;102172.13;;;12.94;67.12
47716;BME280;33476;50.984;3.538;2023-02-19T01:59:36;102175.63;;;12.95;66.94
47716;BME280;33476;50.984;3.538;2023-02-19T02:02:02;102179.31;;;12.89;67.55
47716;BME280;33476;50.984;3.538;2023-02-19T02:04:29;102173.28;;;12.87;67.35
47716;BME280;33476;50.984;3.538;2023-02-19T02:06:56;102171.56;;;12.86;67.11
47716;BME280;33476;50.984;3.538;2023-02-19T02:09:26;102173.22;;;12.89;67.17
47716;BME280;33476;50.984;3.538;2023-02-19T02:12:10;102167.22;;;12.85;67.00
47716;BME280;33476;50.984;3.538;2023-02-19T02:14:42;102179.56;;;12.82;67.05
47716;BME280;33476;50.984;3.538;2023-02-19T02:17:32;102181.25;;;12.84;67.18
47716;BME280;33476;50.984;3.538;2023-02-19T02:22:46;102192.53;;;12.86;66.51
47716;BME280;33476;50.984;3.538;2023-02-19T02:28:16;102183.06;;;12.82;66.65
47716;BME280;33476;50.984;3.538;2023-02-19T02:30:57;102187.41;;;12.83;66.49
47716;BME280;33476;50.984;3.538;2023-02-19T02:33:30;102194.44;;;12.83;66.61
47716;BME280;33476;50.984;3.538;2023-02-19T02:36:09;102199.56;;;12.86;66.27
47716;BME280;33476;50.984;3.538;2023-02-19T02:38:39;102197.72;;;12.88;66.08
47716;BME280;33476;50.984;3.538;2023-02-19T02:41:05;102193.38;;;12.87;66.11
47716;BME280;33476;50.984;3.538;2023-02-19T02:43:32;102192.66;;;12.83;66.32
47716;BME280;33476;50.984;3.538;2023-02-19T02:45:57;102193.53;;;12.82;66.25
47716;BME280;33476;50.984;3.538;2023-02-19T02:48:26;102195.22;;;12.85;66.32
47716;BME280;33476;50.984;3.538;2023-02-19T02:51:07;102190.72;;;12.88;66.29
47716;BME280;33476;50.984;3.538;2023-02-19T02:53:42;102189.97;;;12.85;66.04
47716;BME280;33476;50.984;3.538;2023-02-19T02:56:28;102197.63;;;12.91;66.17
47716;BME280;33476;50.984;3.538;2023-02-19T02:58:55;102197.66;;;12.89;66.27
47716;BME280;33476;50.984;3.538;2023-02-19T03:01:26;102202.97;;;12.88;66.08
47716;BME280;33476;50.984;3.538;2023-02-19T03:04:17;102206.56;;;12.85;65.92
47716;BME280;33476;50.984;3.538;2023-02-19T03:06:46;102205.66;;;12.86;66.06
47716;BME280;33476;50.984;3.538;2023-02-19T03:09:22;102208.38;;;12.83;66.20
47716;BME280;33476;50.984;3.538;2023-02-19T03:11:56;102209.25;;;12.84;66.16
47716;BME280;33476;50.984;3.538;2023-02-19T03:14:48;102210.25;;;12.80;66.31
47716;BME280;33476;50.984;3.538;2023-02-19T03:17:49;102213.91;;;12.76;66.51
47716;BME280;33476;50.984;3.538;2023-02-19T03:20:38;102222.38;;;12.82;66.42
47716;BME280;33476;50.984;3.538;2023-02-19T03:23:05;102216.41;;;12.79;66.66
47716;BME280;33476;50.984;3.538;2023-02-19T03:25:34;102226.03;;;12.78;66.54
47716;BME280;33476;50.984;3.538;2023-02-19T03:28:22;102221.75;;;12.76;66.72
47716;BME280;33476;50.984;3.538;2023-02-19T03:31:11;102234.88;;;12.76;66.87
47716;BME280;33476;50.984;3.538;2023-02-19T03:33:39;102231.28;;;12.78;66.73
47716;BME280;33476;50.984;3.538;2023-02-19T03:36:07;102232.00;;;12.82;66.70
47716;BME280;33476;50.984;3.538;2023-02-19T03:38:44;102239.03;;;12.81;66.52
47716;BME280;33476;50.984;3.538;2023-02-19T03:41:22;102238.22;;;12.79;66.41
47716;BME280;33476;50.984;3.538;2023-02-19T03:49:39;102251.34;;;12.79;66.51
47716;BME280;33476;50.984;3.538;2023-02-19T03:52:12;102251.47;;;12.76;66.85
47716;BME280;33476;50.984;3.538;2023-02-19T03:54:45;102247.88;;;12.79;66.47
47716;BME280;33476;50.984;3.538;2023-02-19T03:57:27;102262.09;;;12.72;66.77
47716;BME280;33476;50.984;3.538;2023-02-19T04:00:08;102263.78;;;12.73;66.75
47716;BME280;33476;50.984;3.538;2023-02-19T04:02:44;102250.63;;;12.74;66.55
47716;BME280;33476;50.984;3.538;2023-02-19T04:05:26;102261.16;;;12.73;66.52
47716;BME280;33476;50.984;3.538;2023-02-19T04:07:55;102265.63;;;12.71;66.67
47716;BME280;33476;50.984;3.538;2023-02-19T04:10:23;102267.44;;;12.69;66.58
47716;BME280;33476;50.984;3.538;2023-02-19T04:12:53;102273.59;;;12.68;66.64
47716;BME280;33476;50.984;3.538;2023-02-19T04:15:25;102267.50;;;12.67;66.81
47716;BME280;33476;50.984;3.538;2023-02-19T04:18:03;102281.59;;;12.63;67.06
47716;BME280;33476;50.984;3.538;2023-02-19T04:20:33;102278.78;;;12.69;66.49
47716;BME280;33476;50.984;3.538;2023-02-19T04:23:00;102283.00;;;12.73;66.56
47716;BME280;33476;50.984;3.538;2023-02-19T04:25:26;102287.34;;;12.74;66.19
47716;BME280;33476;50.984;3.538;2023-02-19T04:27:53;102279.38;;;12.77;66.27
47716;BME280;33476;50.984;3.538;2023-02-19T04:30:22;102284.78;;;12.73;66.45
47716;BME280;33476;50.984;3.538;2023-02-19T04:32:47;102288.25;;;12.73;66.21
47716;BME280;33476;50.984;3.538;2023-02-19T04:35:12;102285.63;;;12.73;66.24
47716;BME280;33476;50.984;3.538;2023-02-19T04:37:38;102291.72;;;12.74;66.22
47716;BME280;33476;50.984;3.538;2023-02-19T04:40:03;102295.13;;;12.77;66.10
47716;BME280;33476;50.984;3.538;2023-02-19T04:42:29;102296.22;;;12.70;65.83
47716;BME280;33476;50.984;3.538;2023-02-19T04:44:54;102291.09;;;12.67;66.02
47716;BME280;33476;50.984;3.538;2023-02-19T04:47:19;102295.44;;;12.68;66.02
47716;BME280;33476;50.984;3.538;2023-02-19T04:49:44;102292.94;;;12.63;65.93
47716;BME280;33476;50.984;3.538;2023-02-19T04:52:10;102301.66;;;12.64;65.84
47716;BME280;33476;50.984;3.538;2023-02-19T04:54:35;102308.72;;;12.62;65.73
47716;BME280;33476;50.984;3.538;2023-02-19T04:57:01;102303.38;;;12.65;65.78
47716;BME280;33476;50.984;3.538;2023-02-19T04:59:26;102305.97;;;12.67;65.89
47716;BME280;33476;50.984;3.538;2023-02-19T05:01:51;102308.63;;;12.65;65.73
47716;BME280;33476;50.984;3.538;2023-02-19T05:04:17;102313.00;;;12.64;65.55
47716;BME280;33476;50.984;3.538;2023-02-19T05:06:42;102311.22;;;12.65;65.97
47716;BME280;33476;50.984;3.538;2023-02-19T05:09:08;102315.69;;;12.63;65.66
47716;BME280;33476;50.984;3.538;2023-02-19T05:11:33;102320.13;;;12.61;65.95
47716;BME280;33476;50.984;3.538;2023-02-19T05:13:58;102321.03;;;12.60;65.75
47716;BME280;33476;50.984;3.538;2023-02-19T05:16:24;102323.59;;;12.61;65.55
47716;BME280;33476;50.984;3.538;2023-02-19T05:18:49;102327.81;;;12.65;65.47
47716;BME280;33476;50.984;3.538;2023-02-19T05:21:15;102324.41;;;12.63;65.48
47716;BME280;33476;50.984;3.538;2023-02-19T05:23:43;102330.56;;;12.62;65.55
47716;BME280;33476;50.984;3.538;2023-02-19T05:26:14;102341.94;;;12.61;65.49
47716;BME280;33476;50.984;3.538;2023-02-19T05:28:44;102341.84;;;12.64;65.33
47716;BME280;33476;50.984;3.538;2023-02-19T05:31:10;102347.84;;;12.68;64.97
47716;BME280;33476;50.984;3.538;2023-02-19T05:33:36;102346.09;;;12.69;64.94
47716;BME280;33476;50.984;3.538;2023-02-19T05:36:05;102354.03;;;12.65;64.82
47716;BME280;33476;50.984;3.538;2023-02-19T05:38:31;102352.31;;;12.64;65.17
47716;BME280;33476;50.984;3.538;2023-02-19T05:41:07;102363.91;;;12.57;65.34
47716;BME280;33476;50.984;3.538;2023-02-19T05:43:33;102357.78;;;12.58;65.14
47716;BME280;33476;50.984;3.538;2023-02-19T05:45:58;102363.09;;;12.55;64.81
47716;BME280;33476;50.984;3.538;2023-02-19T05:48:24;102363.22;;;12.52;65.10
47716;BME280;33476;50.984;3.538;2023-02-19T05:50:49;102373.59;;;12.55;64.98
47716;BME280;33476;50.984;3.538;2023-02-19T05:53:15;102374.50;;;12.54;64.85
47716;BME280;33476;50.984;3.538;2023-02-19T05:55:41;102368.28;;;12.57;64.86
47716;BME280;33476;50.984;3.538;2023-02-19T05:58:06;102381.41;;;12.57;64.94
47716;BME280;33476;50.984;3.538;2023-02-19T06:00:32;102377.06;;;12.56;64.97
47716;BME280;33476;50.984;3.538;2023-02-19T06:02:58;102377.91;;;12.58;64.61
47716;BME280;33476;50.984;3.538;2023-02-19T06:05:23;102389.19;;;12.60;64.74
47716;BME280;33476;50.984;3.538;2023-02-19T06:07:48;102382.22;;;12.59;64.30
47716;BME280;33476;50.984;3.538;2023-02-19T06:10:16;102393.56;;;12.59;64.46
47716;BME280;33476;50.984;3.538;2023-02-19T06:12:42;102395.34;;;12.59;64.53
47716;BME280;33476;50.984;3.538;2023-02-19T06:15:07;102385.78;;;12.56;64.58
47716;BME280;33476;50.984;3.538;2023-02-19T06:17:33;102384.00;;;12.57;64.33
47716;BME280;33476;50.984;3.538;2023-02-19T06:19:59;102385.78;;;12.56;64.52
47716;BME280;33476;50.984;3.538;2023-02-19T06:22:25;102383.13;;;12.58;64.45
47716;BME280;33476;50.984;3.538;2023-02-19T06:24:51;102391.88;;;12.57;64.46
47716;BME280;33476;50.984;3.538;2023-02-19T06:27:16;102390.13;;;12.57;64.01
47716;BME280;33476;50.984;3.538;2023-02-19T06:29:41;102395.34;;;12.59;64.15
47716;BME280;33476;50.984;3.538;2023-02-19T06:32:07;102403.13;;;12.60;63.86
47716;BME280;33476;50.984;3.538;2023-02-19T06:34:33;102399.63;;;12.61;64.20
47716;BME280;33476;50.984;3.538;2023-02-19T06:36:58;102409.25;;;12.61;64.13
47716;BME280;33476;50.984;3.538;2023-02-19T06:39:25;102415.41;;;12.60;63.89
47716;BME280;33476;50.984;3.538;2023-02-19T06:41:50;102414.53;;;12.59;63.75
47716;BME280;33476;50.984;3.538;2023-02-19T06:44:18;102411.97;;;12.58;63.85
47716;BME280;33476;50.984;3.538;2023-02-19T06:46:44;102414.59;;;12.58;63.84
47716;BME280;33476;50.984;3.538;2023-02-19T06:49:09;102421.56;;;12.57;63.85
47716;BME280;33476;50.984;3.538;2023-02-19T06:51:34;102421.63;;;12.56;64.22
47716;BME280;33476;50.984;3.538;2023-02-19T06:53:59;102418.25;;;12.52;64.14
47716;BME280;33476;50.984;3.538;2023-02-19T06:58:53;102408.84;;;12.45;64.54
47716;BME280;33476;50.984;3.538;2023-02-19T07:01:20;102414.03;;;12.47;64.32
47716;BME280;33476;50.984;3.538;2023-02-19T07:03:46;102423.66;;;12.46;64.54
47716;BME280;33476;50.984;3.538;2023-02-19T07:06:11;102419.28;;;12.47;64.50
47716;BME280;33476;50.984;3.538;2023-02-19T07:08:36;102419.22;;;12.48;64.21
47716;BME280;33476;50.984;3.538;2023-02-19T07:11:02;102428.84;;;12.48;64.38
47716;BME280;33476;50.984;3.538;2023-02-19T07:13:27;102434.25;;;12.43;64.33
47716;BME280;33476;50.984;3.538;2023-02-19T07:16:00;102433.53;;;12.38;64.27
47716;BME280;33476;50.984;3.538;2023-02-19T07:18:26;102439.38;;;12.46;64.26
47716;BME280;33476;50.984;3.538;2023-02-19T07:20:51;102444.63;;;12.46;64.20
47716;BME280;33476;50.984;3.538;2023-02-19T07:23:17;102450.78;;;12.45;64.43
47716;BME280;33476;50.984;3.538;2023-02-19T07:25:42;102450.78;;;12.45;64.04
47716;BME280;33476;50.984;3.538;2023-02-19T07:28:07;102456.03;;;12.45;64.39
47716;BME280;33476;50.984;3.538;2023-02-19T07:30:33;102455.16;;;12.45;64.37
47716;BME280;33476;50.984;3.538;2023-02-19T07:32:58;102462.16;;;12.44;64.38
47716;BME280;33476;50.984;3.538;2023-02-19T07:35:24;102465.75;;;12.42;64.45
47716;BME280;33476;50.984;3.538;2023-02-19T07:37:49;102468.38;;;12.42;64.56
47716;BME280;33476;50.984;3.538;2023-02-19T07:40:14;102471.88;;;12.41;64.69
47716;BME280;33476;50.984;3.538;2023-02-19T07:42:40;102484.91;;;12.44;64.24
47716;BME280;33476;50.984;3.538;2023-02-19T07:45:06;102484.84;;;12.45;64.11
47716;BME280;33476;50.984;3.538;2023-02-19T07:47:31;102490.81;;;12.50;64.08
47716;BME280;33476;50.984;3.538;2023-02-19T07:49:56;102500.25;;;12.56;64.16
47716;BME280;33476;50.984;3.538;2023-02-19T07:52:22;102501.09;;;12.58;64.18
47716;BME280;33476;50.984;3.538;2023-02-19T07:54:47;102498.47;;;12.56;63.62
47716;BME280;33476;50.984;3.538;2023-02-19T07:57:12;102501.97;;;12.57;63.90
47716;BME280;33476;50.984;3.538;2023-02-19T07:59:38;102502.88;;;12.56;64.15
47716;BME280;33476;50.984;3.538;2023-02-19T08:02:11;102511.75;;;12.52;63.98
47716;BME280;33476;50.984;3.538;2023-02-19T08:04:58;102510.78;;;12.54;64.11
47716;BME280;33476;50.984;3.538;2023-02-19T08:07:23;102520.47;;;12.52;64.18
47716;BME280;33476;50.984;3.538;2023-02-19T08:09:48;102520.41;;;12.54;63.99
47716;BME280;33476;50.984;3.538;2023-02-19T08:12:34;102515.13;;;12.55;64.04
47716;BME280;33476;50.984;3.538;2023-02-19T08:15:19;102527.41;;;12.53;64.37
47716;BME280;33476;50.984;3.538;2023-02-19T08:17:44;102532.50;;;12.59;64.22
47716;BME280;33476;50.984;3.538;2023-02-19T08:20:10;102532.44;;;12.61;63.79
47716;BME280;33476;50.984;3.538;2023-02-19T08:22:35;102545.50;;;12.62;64.34
47716;BME280;33476;50.984;3.538;2023-02-19T08:25:00;102539.28;;;12.65;63.96
47716;BME280;33476;50.984;3.538;2023-02-19T08:27:26;102552.34;;;12.68;63.66
47716;BME280;33476;50.984;3.538;2023-02-19T08:29:51;102554.09;;;12.68;63.91
47716;BME280;33476;50.984;3.538;2023-02-19T08:32:16;102551.44;;;12.69;63.73
47716;BME280;33476;50.984;3.538;2023-02-19T08:34:42;102567.16;;;12.69;63.95
47716;BME280;33476;50.984;3.538;2023-02-19T08:37:07;102569.78;;;12.69;63.92
47716;BME280;33476;50.984;3.538;2023-02-19T08:39:32;102574.88;;;12.74;63.65
47716;BME280;33476;50.984;3.538;2023-02-19T08:41:57;102575.59;;;12.79;63.66
47716;BME280;33476;50.984;3.538;2023-02-19T08:44:23;102581.75;;;12.78;63.57
47716;BME280;33476;50.984;3.538;2023-02-19T08:46:48;102580.97;;;12.74;63.48
47716;BME280;33476;50.984;3.538;2023-02-19T08:49:13;102590.66;;;12.72;63.54
47716;BME280;33476;50.984;3.538;2023-02-19T08:51:40;102593.22;;;12.74;63.74
47716;BME280;33476;50.984;3.538;2023-02-19T08:54:05;102593.22;;;12.74;63.61
47716;BME280;33476;50.984;3.538;2023-02-19T08:56:31;102595.72;;;12.78;63.52
47716;BME280;33476;50.984;3.538;2023-02-19T08:58:56;102587.75;;;12.81;63.39
47716;BME280;33476;50.984;3.538;2023-02-19T09:01:21;102588.53;;;12.85;63.34
47716;BME280;33476;50.984;3.538;2023-02-19T09:03:47;102587.69;;;12.84;63.30
47716;BME280;33476;50.984;3.538;2023-02-19T09:06:15;102581.59;;;12.84;63.31
47716;BME280;33476;50.984;3.538;2023-02-19T09:08:41;102591.06;;;12.88;63.21
47716;BME280;33476;50.984;3.538;2023-02-19T09:11:07;102590.91;;;12.94;63.25
47716;BME280;33476;50.984;3.538;2023-02-19T09:13:33;102588.28;;;12.94;63.01
47716;BME280;33476;50.984;3.538;2023-02-19T09:15:58;102597.75;;;12.98;62.98
47716;BME280;33476;50.984;3.538;2023-02-19T09:18:24;102598.53;;;13.02;62.66
47716;BME280;33476;50.984;3.538;2023-02-19T09:20:51;102605.50;;;13.03;62.96
47716;BME280;33476;50.984;3.538;2023-02-19T09:23:16;102603.72;;;13.03;63.08
47716;BME280;33476;50.984;3.538;2023-02-19T09:25:41;102600.16;;;13.06;62.89
47716;BME280;33476;50.984;3.538;2023-02-19T09:28:07;102590.56;;;13.05;62.64
47716;BME280;33476;50.984;3.538;2023-02-19T09:30:32;102597.53;;;13.06;62.52
47716;BME280;33476;50.984;3.538;2023-02-19T09:32:57;102598.38;;;13.08;62.58
47716;BME280;33476;50.984;3.538;2023-02-19T09:35:23;102595.75;;;13.08;62.62
47716;BME280;33476;50.984;3.538;2023-02-19T09:37:48;102597.47;;;13.09;62.91
47716;BME280;33476;50.984;3.538;2023-02-19T09:40:14;102601.69;;;13.13;62.36
47716;BME280;33476;50.984;3.538;2023-02-19T09:42:45;102606.88;;;13.14;62.20
47716;BME280;33476;50.984;3.538;2023-02-19T09:45:18;102613.81;;;13.17;62.04
47716;BME280;33476;50.984;3.538;2023-02-19T09:47:45;102619.00;;;13.20;62.11
47716;BME280;33476;50.984;3.538;2023-02-19T09:50:16;102613.00;;;13.15;62.03
47716;BME280;33476;50.984;3.538;2023-02-19T09:52:55;102613.66;;;13.23;61.54
47716;BME280;33476;50.984;3.538;2023-02-19T09:55:29;102625.78;;;13.27;61.68
47716;BME280;33476;50.984;3.538;2023-02-19T09:57:56;102634.47;;;13.29;61.40
47716;BME280;33476;50.984;3.538;2023-02-19T10:00:26;102636.28;;;13.27;61.65
47716;BME280;33476;50.984;3.538;2023-02-19T10:02:57;102636.28;;;13.27;61.83
47716;BME280;33476;50.984;3.538;2023-02-19T10:05:25;102645.94;;;13.27;61.43
47716;BME280;33476;50.984;3.538;2023-02-19T10:07:52;102645.06;;;13.26;61.26
47716;BME280;33476;50.984;3.538;2023-02-19T10:10:29;102643.34;;;13.25;61.62
47716;BME280;33476;50.984;3.538;2023-02-19T10:15:47;102649.25;;;13.32;61.36
47716;BME280;33476;50.984;3.538;2023-02-19T10:18:21;102653.50;;;13.36;61.25
47716;BME280;33476;50.984;3.538;2023-02-19T10:20:48;102650.88;;;13.36;61.33
47716;BME280;33476;50.984;3.538;2023-02-19T10:23:15;102660.47;;;13.37;61.12
47716;BME280;33476;50.984;3.538;2023-02-19T10:25:48;102670.00;;;13.39;60.88
47716;BME280;33476;50.984;3.538;2023-02-19T10:28:16;102679.47;;;13.45;60.80
47716;BME280;33476;50.984;3.538;2023-02-19T10:30:43;102679.44;;;13.46;61.03
47716;BME280;33476;50.984;3.538;2023-02-19T10:33:14;102677.66;;;13.47;60.71
47716;BME280;33476;50.984;3.538;2023-02-19T10:38:22;102677.59;;;13.50;60.75
47716;BME280;33476;50.984;3.538;2023-02-19T10:40:57;102680.09;;;13.53;60.85
47716;BME280;33476;50.984;3.538;2023-02-19T10:43:29;102677.34;;;13.58;60.78
47716;BME280;33476;50.984;3.538;2023-02-19T10:45:58;102675.59;;;13.58;60.80
47716;BME280;33476;50.984;3.538;2023-02-19T10:48:31;102694.91;;;13.56;60.58
47716;BME280;33476;50.984;3.538;2023-02-19T10:51:05;102701.84;;;13.58;60.33
47716;BME280;33476;50.984;3.538;2023-02-19T10:53:51;102699.34;;;13.54;60.23
47716;BME280;33476;50.984;3.538;2023-02-19T10:56:27;102707.13;;;13.57;60.46
47716;BME280;33476;50.984;3.538;2023-02-19T10:59:14;102713.38;;;13.53;60.60
47716;BME280;33476;50.984;3.538;2023-02-19T11:01:57;102714.28;;;13.52;60.25
47716;BME280;33476;50.984;3.538;2023-02-19T11:04:26;102722.09;;;13.53;60.11
47716;BME280;33476;50.984;3.538;2023-02-19T11:06:51;102716.06;;;13.51;60.15
47716;BME280;33476;50.984;3.538;2023-02-19T11:12:01;102738.81;;;13.51;60.53
47716;BME280;33476;50.984;3.538;2023-02-19T11:14:30;102733.53;;;13.52;60.29
47716;BME280;33476;50.984;3.538;2023-02-19T11:16:57;102732.72;;;13.48;60.09
47716;BME280;33476;50.984;3.538;2023-02-19T11:19:38;102731.34;;;13.37;60.53
47716;BME280;33476;50.984;3.538;2023-02-19T11:25:05;102736.16;;;13.52;59.82
47716;BME280;33476;50.984;3.538;2023-02-19T11:27:32;102736.28;;;13.47;60.36
47716;BME280;33476;50.984;3.538;2023-02-19T11:32:46;102740.19;;;13.34;60.18
47716;BME280;33476;50.984;3.538;2023-02-19T11:35:16;102740.13;;;13.36;60.23
47716;BME280;33476;50.984;3.538;2023-02-19T11:37:59;102731.44;;;13.34;60.55
47716;BME280;33476;50.984;3.538;2023-02-19T11:46:00;102714.84;;;13.32;60.17
47716;BME280;33476;50.984;3.538;2023-02-19T11:51:17;102701.22;;;13.48;59.82
47716;BME280;33476;50.984;3.538;2023-02-19T11:53:47;102694.31;;;13.46;59.75
47716;BME280;33476;50.984;3.538;2023-02-19T11:56:23;102692.47;;;13.49;59.86
47716;BME280;33476;50.984;3.538;2023-02-19T11:59:00;102687.22;;;13.49;59.81
47716;BME280;33476;50.984;3.538;2023-02-19T12:07:33;102694.03;;;13.55;59.50
47716;BME280;33476;50.984;3.538;2023-02-19T12:10:24;102695.81;;;13.55;59.49
47716;BME280;33476;50.984;3.538;2023-02-19T12:19:01;102699.75;;;13.40;59.47
47716;BME280;33476;50.984;3.538;2023-02-19T12:37:46;102747.25;;;13.32;59.72
47716;BME280;33476;50.984;3.538;2023-02-19T12:43:04;102755.13;;;13.32;59.35
47716;BME280;33476;50.984;3.538;2023-02-19T12:45:56;102757.63;;;13.35;59.22
47716;BME280;33476;50.984;3.538;2023-02-19T12:51:08;102767.22;;;13.36;58.45
47716;BME280;33476;50.984;3.538;2023-02-19T12:56:18;102762.84;;;13.37;58.38
47716;BME280;33476;50.984;3.538;2023-02-19T12:58:48;102764.59;;;13.36;58.32
47716;BME280;33476;50.984;3.538;2023-02-19T13:01:19;102770.88;;;13.31;58.49
47716;BME280;33476;50.984;3.538;2023-02-19T13:06:38;102761.44;;;13.24;58.66
47716;BME280;33476;50.984;3.538;2023-02-19T13:09:16;102761.44;;;13.24;58.73
47716;BME280;33476;50.984;3.538;2023-02-19T13:14:39;102752.72;;;13.23;58.65
47716;BME280;33476;50.984;3.538;2023-02-19T13:17:28;102761.50;;;13.22;58.65
47716;BME280;33476;50.984;3.538;2023-02-19T13:20:00;102761.66;;;13.16;58.82
47716;BME280;33476;50.984;3.538;2023-02-19T13:22:38;102755.50;;;13.17;59.12
47716;BME280;33476;50.984;3.538;2023-02-19T13:25:36;102754.53;;;13.21;58.73
47716;BME280;33476;50.984;3.538;2023-02-19T13:28:14;102754.47;;;13.24;58.52
47716;BME280;33476;50.984;3.538;2023-02-19T13:33:52;102751.78;;;13.26;58.90
47716;BME280;33476;50.984;3.538;2023-02-19T13:36:25;102765.72;;;13.28;58.53
47716;BME280;33476;50.984;3.538;2023-02-19T13:38:53;102767.34;;;13.32;58.67
47716;BME280;33476;50.984;3.538;2023-02-19T13:41:39;102764.81;;;13.29;58.75
47716;BME280;33476;50.984;3.538;2023-02-19T13:44:13;102766.47;;;13.33;58.32
47716;BME280;33476;50.984;3.538;2023-02-19T13:46:44;102757.75;;;13.32;58.20
47716;BME280;33476;50.984;3.538;2023-02-19T13:54:44;102776.00;;;13.35;58.35
47716;BME280;33476;50.984;3.538;2023-02-19T13:59:51;102786.63;;;13.31;58.45
47716;BME280;33476;50.984;3.538;2023-02-19T14:14:41;102795.13;;;13.08;58.73
47716;BME280;33476;50.984;3.538;2023-02-19T14:27:58;102806.38;;;13.11;58.29
47716;BME280;33476;50.984;3.538;2023-02-19T14:30:26;102808.00;;;13.15;58.62
47716;BME280;33476;50.984;3.538;2023-02-19T14:32:52;102810.63;;;13.15;58.59
47716;BME280;33476;50.984;3.538;2023-02-19T14:35:19;102818.53;;;13.14;58.22
47716;BME280;33476;50.984;3.538;2023-02-19T14:37:47;102824.75;;;13.11;58.25
47716;BME280;33476;50.984;3.538;2023-02-19T14:40:22;102817.88;;;13.06;58.21
47716;BME280;33476;50.984;3.538;2023-02-19T14:42:50;102812.63;;;13.06;58.29
47716;BME280;33476;50.984;3.538;2023-02-19T14:45:18;102799.38;;;13.12;57.99
47716;BME280;33476;50.984;3.538;2023-02-19T14:47:45;102796.63;;;13.16;57.98
47716;BME280;33476;50.984;3.538;2023-02-19T14:50:16;102800.13;;;13.17;57.80
47716;BME280;33476;50.984;3.538;2023-02-19T14:52:47;102808.84;;;13.17;58.01
47716;BME280;33476;50.984;3.538;2023-02-19T14:55:25;102801.81;;;13.18;57.94
47716;BME280;33476;50.984;3.538;2023-02-19T14:57:53;102805.34;;;13.17;57.57